OMDBGOOY

Guest
Details From OMDB - Dubai Intl
To GOOY - Dakar Leopold Sedar Senghor Intl
Flight Number -
Tags Generated
Created
Modified
Stats Distance 4,116 nm / 7,623 km
Max Altitude 0 ft / 0 m
Waypoints 7
Social Downloads 3
Likes 0
Share VATSIM

Download

Looking for another format? Having issues loading an existing format? Contact us
Advertisement - Login to hide

Notes

Generated

Route

OMDB ELOSA AVOBO GAS22 BELAL YF GOOY

ID Type Via Altitude Latitude Longitude Leg Dist Tot Dist Heading (true) Name
O OMDB APT - 0 ft / 0 m 25.26213˚ 55.34757˚ - 0 nm - -
ELOSA FIX - 0 ft / 0 m 25.81389˚ 51.70917˚ 199 nm 199 nm 280° / 279° -
AVOBO FIX - 0 ft / 0 m 26.05944˚ 47.12194˚ 248 nm 448 nm 274° / 272° -
GAS22 FIX - 0 ft / 0 m 26.11445˚ 43.59009˚ 190 nm 638 nm 272° / 270° -
BELAL FIX - 0 ft / 0 m 25.77472˚ 39.42306˚ 225 nm 864 nm 266° / 264° -
YF VOR - 0 ft / 0 m 14.74483˚ -17.47478˚ 3249 nm 4114 nm 270° / 249° DAKAR VOR-DME
O GOOY APT - 0 ft / 0 m 14.73171˚ -17.50427˚ 1 nm 4115 nm 245° / 245° -

Altitude Profile

Advertisement - Login to hide

Weather


0- 5 10 15 20 25 30 35+ Temperature / ° C

Clouds and Precipitation
Forecast for 2017-12-13 18:00 UTC. Updated 7 minutes ago

Ground ~20,000 ft ~40,000 ft Winds

OMDB

Details ICAO OMDB (DXB)
Name DUBAI INTL
Region United Arab Emirates
Timezone Asia/Dubai (UTC+4.0)
Stats Elevation 62 ft / 19 m (AMSL)
Location 25.254912° 55.364260°
Runways 2
Magnetic Variation 2.047° E

METAR

OMDB 131500Z 04010KT 360V060 CAVOK 23/07 Q1017 NOSIG

Decode

TAF

TAF OMDB 131056Z 1312/1418 36014KT 8000 NSC BECMG 1314/1316 07008KT BECMG 1409/1411 34013KT BECMG 1414/1416 09008KT

Decode

Departure Runways

ID Width Length Bearing (true) Bearing (mag) Surface Threshold Offset Overrun Length
12L 197 ft / 60 m 13,124 ft / 4,000 m 121.49° 119.44° Asphalt 1,312 ft / 400 m 395 ft / 120 m
12R 151 ft / 46 m 13,139 ft / 4,005 m 121.48° 119.43° Asphalt 394 ft / 120 m 197 ft / 60 m
30L 151 ft / 46 m 13,139 ft / 4,005 m 301.50° 299.45° Asphalt 2,953 ft / 900 m 197 ft / 60 m
30R 197 ft / 60 m 13,124 ft / 4,000 m 301.51° 299.46° Asphalt 0 ft / 0 m 395 ft / 120 m

GOOY

Details ICAO GOOY (DKR)
Name Dakar Leopold Sedar Senghor Intl
Region Senegal
Timezone Africa/Dakar (UTC+0.0)
Stats Elevation 85 ft / 26 m (AMSL)
Location 14.739711° -17.490226°
Runways 2
Magnetic Variation 7.348° W

METAR

GOOY 131500Z 02020KT CAVOK 26/16 Q1013

Decode

TAF

TAF GOOY 131130Z 1312/1418 02014KT CAVOK= TAF GBYD 131130Z 1312/1418 03007KT CAVOK

Decode

Destination Runways

ID Width Length Bearing (true) Bearing (mag) Surface Threshold Offset Overrun Length
03 98 ft / 30 m 4,921 ft / 1,500 m 22.31° 29.66° Asphalt 0 ft / 0 m 98 ft / 30 m
18 148 ft / 45 m 11,511 ft / 3,509 m 172.57° 179.92° Asphalt 525 ft / 160 m 197 ft / 60 m
21 98 ft / 30 m 4,921 ft / 1,500 m 202.31° 209.66° Asphalt 0 ft / 0 m 1,590 ft / 485 m
36 148 ft / 45 m 11,511 ft / 3,509 m 352.57° 359.92° Asphalt 0 ft / 0 m 197 ft / 60 m

Approach Navaids

Runway Type Ident Frequency Range Bearing (true) Bearing (mag) Slope Elevation
36 Localiser YF 110.30 MHz 18 nm / 33 km 352.33° 359.67° - 65 ft / 20 m (AMSL)
36 Glidescope YF 110.30 MHz 10 nm / 19 km 352.57° 359.92° 3.01° 73 ft / 22 m (AMSL)
36 DME YF 110.30 MHz 18 nm / 33 km - - - 73 ft / 22 m (AMSL)

Popular Alternatives